Time;durP1;ratioP1;P1;durP2;ratioP2;P2;SDS_P1;SDS_P2;PMS_P1;PMS_P2;Temp;Humidity;BMP_temperature;BMP_pressure;BME280_temperature;BME280_humidity;BME280_pressure;Samples;Min_cycle;Max_cycle;Signal;HPM_P1;HPM_P2
2022/02/22 00:01:45;;;;;;;8.20;4.47;;;;;;;;;;7331140;19;161856;-15
2022/02/22 00:04:16;;;;;;;7.30;4.75;;;;;;;;;;7333736;19;162373;-15
2022/02/22 00:06:49;;;;;;;6.22;4.50;;;;;;;;;;7335062;19;155374;-15
2022/02/22 00:09:20;;;;;;;8.70;4.15;;;;;;;;;;7329768;19;154703;-15
2022/02/22 13:17:32;;;;;;;6.32;3.25;;;;;;;;;;7368915;19;132439;-20
2022/02/22 13:20:04;;;;;;;5.30;3.72;;;;;;;;;;7364887;19;153587;-23
2022/02/22 13:22:40;;;;;;;4.80;3.45;;;;;;;;;;7366323;19;161762;-14
2022/02/22 13:25:15;;;;;;;7.00;3.25;;;;;;;;;;7363954;19;162621;-14
2022/02/22 13:27:49;;;;;;;9.77;3.97;;;;;;;;;;7365053;19;154068;-13
2022/02/22 13:30:39;;;;;;;6.65;3.10;;;;;;;;;;7364748;19;153648;-14
2022/02/22 13:33:17;;;;;;;6.25;3.40;;;;;;;;;;7364245;19;162163;-13
2022/02/22 13:36:04;;;;;;;7.80;3.05;;;;;;;;;;7363945;19;162617;-14
2022/02/22 13:38:35;;;;;;;7.75;3.45;;;;;;;;;;7368133;19;153879;-15
2022/02/22 13:41:12;;;;;;;5.55;3.30;;;;;;;;;;7363199;19;153507;-14
2022/02/22 13:43:44;;;;;;;7.90;3.20;;;;;;;;;;7364030;19;162072;-14
2022/02/22 13:46:15;;;;;;;7.13;3.33;;;;;;;;;;7363914;19;162395;-15
2022/02/22 13:48:49;;;;;;;7.95;3.05;;;;;;;;;;7364250;19;154119;-13
2022/02/22 13:51:20;;;;;;;8.18;3.50;;;;;;;;;;7362981;19;153751;-14
2022/02/22 13:53:52;;;;;;;5.78;2.78;;;;;;;;;;7362711;19;161895;-13
2022/02/22 13:56:28;;;;;;;5.75;3.42;;;;;;;;;;7363537;19;162558;-16
2022/02/22 13:59:07;;;;;;;5.75;3.15;;;;;;;;;;7364232;19;153915;-14
2022/02/22 14:01:46;;;;;;;6.55;3.55;;;;;;;;;;7366649;19;153513;-14
2022/02/22 14:04:20;;;;;;;4.60;3.25;;;;;;;;;;7367085;19;161893;-14
2022/02/22 14:06:52;;;;;;;5.72;3.08;;;;;;;;;;7361360;19;162551;-14
2022/02/22 14:09:23;;;;;;;5.45;3.13;;;;;;;;;;7363790;19;153950;-14
2022/02/22 14:11:55;;;;;;;5.05;2.92;;;;;;;;;;7363563;19;153635;-14
2022/02/22 14:14:27;;;;;;;4.10;2.55;;;;;;;;;;7362983;19;161844;-13
2022/02/22 14:17:00;;;;;;;4.97;2.83;;;;;;;;;;7351897;19;162559;-13
2022/02/22 14:19:34;;;;;;;5.72;3.05;;;;;;;;;;7334423;19;154061;-14
2022/02/22 14:22:06;;;;;;;6.45;2.90;;;;;;;;;;7334437;19;153507;-14
2022/02/22 14:24:38;;;;;;;4.93;3.20;;;;;;;;;;7333700;19;161920;-15
2022/02/22 14:27:09;;;;;;;4.30;2.83;;;;;;;;;;7330608;19;162528;-14
2022/02/22 14:29:45;;;;;;;3.90;3.15;;;;;;;;;;7333876;19;154199;-15
2022/02/22 14:32:16;;;;;;;5.38;2.90;;;;;;;;;;7338020;19;153549;-15
2022/02/22 14:34:50;;;;;;;6.20;3.05;;;;;;;;;;7333732;19;161864;-14
2022/02/22 14:37:22;;;;;;;5.38;2.95;;;;;;;;;;7333693;19;162406;-14
2022/02/22 14:39:56;;;;;;;7.22;3.58;;;;;;;;;;7334083;19;153982;-15
2022/02/22 14:42:27;;;;;;;6.28;3.42;;;;;;;;;;7333893;19;153507;-14
2022/02/22 14:44:58;;;;;;;10.60;3.38;;;;;;;;;;7333416;19;161863;-15
2022/02/22 14:47:40;;;;;;;8.23;3.47;;;;;;;;;;7331149;19;162336;-14
2022/02/22 14:50:14;;;;;;;6.00;2.92;;;;;;;;;;7334097;19;153941;-15
2022/02/22 14:52:46;;;;;;;5.80;3.10;;;;;;;;;;7332989;19;153839;-14
2022/02/22 14:55:17;;;;;;;5.28;2.60;;;;;;;;;;7333312;19;162033;-16
2022/02/22 14:57:51;;;;;;;5.28;3.22;;;;;;;;;;7332918;19;162638;-15
2022/02/22 15:00:24;;;;;;;6.00;3.20;;;;;;;;;;7333521;19;154104;-16
2022/02/22 15:02:59;;;;;;;8.25;3.28;;;;;;;;;;7333274;19;153586;-25
2022/02/22 15:05:35;;;;;;;6.43;3.70;;;;;;;;;;7332974;19;161829;-16
2022/02/22 15:08:10;;;;;;;7.25;2.78;;;;;;;;;;7330378;19;162318;-14
2022/02/22 15:10:42;;;;;;;4.00;2.67;;;;;;;;;;7333274;19;153944;-14
2022/02/22 15:13:15;;;;;;;7.28;3.47;;;;;;;;;;7332475;19;153408;-14
2022/02/22 15:15:46;;;;;;;7.10;3.37;;;;;;;;;;7331748;19;161880;-15
2022/02/22 15:18:18;;;;;;;4.35;2.83;;;;;;;;;;7332487;19;162532;-14
2022/02/22 15:20:53;;;;;;;8.35;3.33;;;;;;;;;;7332922;19;153919;-14
2022/02/22 15:23:25;;;;;;;4.68;3.10;;;;;;;;;;7332749;19;153613;-13
2022/02/22 15:25:57;;;;;;;5.63;3.80;;;;;;;;;;7332180;19;162140;-15
2022/02/22 15:28:29;;;;;;;;;;;;;;;;;;7330320;19;162580;-14
2022/02/22 15:31:01;;;;;;;7.32;2.92;;;;;;;;;;7332706;19;154123;-15
2022/02/22 15:33:32;;;;;;;7.43;3.70;;;;;;;;;;7332575;19;153685;-14
2022/02/22 15:36:09;;;;;;;5.90;3.40;;;;;;;;;;7332045;19;161834;-15
2022/02/22 15:38:40;;;;;;;5.65;3.15;;;;;;;;;;7332139;19;162399;-14
2022/02/22 15:41:14;;;;;;;5.10;3.10;;;;;;;;;;7332150;19;154013;-14
2022/02/22 15:43:46;;;;;;;5.78;3.33;;;;;;;;;;7330909;19;153589;-14
2022/02/22 15:46:17;;;;;;;6.97;3.17;;;;;;;;;;7331567;19;162052;-13
2022/02/22 15:48:48;;;;;;;5.95;3.08;;;;;;;;;;7331668;19;162375;-14
2022/02/22 15:51:22;;;;;;;6.68;3.65;;;;;;;;;;7332107;19;153956;-14
2022/02/22 15:53:53;;;;;;;5.65;3.30;;;;;;;;;;7331919;19;153549;-13
2022/02/22 15:56:25;;;;;;;6.85;3.00;;;;;;;;;;7331534;19;161947;-14
2022/02/22 15:58:56;;;;;;;8.20;3.13;;;;;;;;;;7331266;19;162419;-14
2022/02/22 16:01:32;;;;;;;8.07;2.85;;;;;;;;;;7331676;19;154264;-14
2022/02/22 16:04:06;;;;;;;8.35;3.75;;;;;;;;;;7331532;19;153509;-14
2022/02/22 16:06:41;;;;;;;4.82;2.80;;;;;;;;;;7329477;19;161906;-13
2022/02/22 16:09:14;;;;;;;6.82;3.28;;;;;;;;;;7330794;19;162773;-14
2022/02/22 16:11:46;;;;;;;7.75;3.75;;;;;;;;;;7331384;19;153912;-14
2022/02/22 16:14:18;;;;;;;5.88;3.20;;;;;;;;;;7331015;19;153557;-14
2022/02/22 16:16:49;;;;;;;5.80;2.75;;;;;;;;;;7328754;19;161819;-14
2022/02/22 16:19:20;;;;;;;5.47;3.00;;;;;;;;;;7330588;19;162548;-14
2022/02/22 16:21:55;;;;;;;8.52;3.47;;;;;;;;;;7331010;19;153958;-14
2022/02/22 16:24:26;;;;;;;6.10;2.70;;;;;;;;;;7330875;19;153826;-13
2022/02/22 16:26:58;;;;;;;6.55;3.22;;;;;;;;;;7329920;19;161804;-14
2022/02/22 16:29:29;;;;;;;5.68;3.28;;;;;;;;;;7330241;19;162482;-14
2022/02/22 16:32:05;;;;;;;5.45;2.92;;;;;;;;;;7330714;19;155583;-13
2022/02/22 16:34:37;;;;;;;4.50;2.92;;;;;;;;;;7330524;19;153531;-13
2022/02/22 16:37:11;;;;;;;7.60;2.92;;;;;;;;;;7330280;19;161855;-15
2022/02/22 16:39:42;;;;;;;7.22;3.30;;;;;;;;;;7329286;19;162518;-13
2022/02/22 16:42:13;;;;;;;6.05;2.80;;;;;;;;;;7330167;19;154558;-14
2022/02/22 16:44:45;;;;;;;4.53;2.53;;;;;;;;;;7330185;19;153531;-14
2022/02/22 16:47:17;;;;;;;7.32;2.95;;;;;;;;;;7329209;19;161955;-14
2022/02/22 16:49:52;;;;;;;6.15;2.95;;;;;;;;;;7329741;19;162216;-14
2022/02/22 16:52:26;;;;;;;6.20;3.38;;;;;;;;;;7330044;19;154071;-14
2022/02/22 16:54:58;;;;;;;4.90;2.80;;;;;;;;;;7330224;19;153778;-14
2022/02/22 16:57:30;;;;;;;7.43;3.03;;;;;;;;;;7329749;19;162088;-14
2022/02/22 17:00:01;;;;;;;6.95;2.80;;;;;;;;;;7329645;19;163103;-16
2022/02/22 17:02:33;;;;;;;5.13;3.03;;;;;;;;;;7329904;19;154223;-14
2022/02/22 17:05:04;;;;;;;4.80;2.72;;;;;;;;;;7329594;19;153735;-14
2022/02/22 17:07:43;;;;;;;6.63;2.75;;;;;;;;;;7328855;19;161968;-14
2022/02/22 17:10:14;;;;;;;5.55;2.90;;;;;;;;;;7329242;19;162353;-14
2022/02/22 17:12:46;;;;;;;5.88;2.92;;;;;;;;;;7329633;19;153948;-14
2022/02/22 17:15:20;;;;;;;4.97;2.63;;;;;;;;;;7329019;19;153652;-14
2022/02/22 17:17:52;;;;;;;3.88;2.58;;;;;;;;;;7329109;19;162080;-14
2022/02/22 17:20:23;;;;;;;8.60;2.83;;;;;;;;;;7329041;19;162606;-14
2022/02/22 17:22:57;;;;;;;6.97;3.17;;;;;;;;;;7329417;19;153951;-14
2022/02/22 17:25:28;;;;;;;6.15;2.78;;;;;;;;;;7329191;19;153823;-15
2022/02/22 17:28:00;;;;;;;5.03;2.80;;;;;;;;;;7327030;19;161814;-17
2022/02/22 17:30:31;;;;;;;5.25;2.95;;;;;;;;;;7328785;19;162358;-14
2022/02/22 17:33:03;;;;;;;6.00;3.40;;;;;;;;;;7329156;19;154229;-14
2022/02/22 17:35:34;;;;;;;7.80;3.38;;;;;;;;;;7328827;19;154259;-15
2022/02/22 17:38:08;;;;;;;6.18;3.13;;;;;;;;;;7327160;19;162061;-15
2022/02/22 17:40:40;;;;;;;6.88;2.85;;;;;;;;;;7327367;19;162343;-14
2022/02/22 17:43:14;;;;;;;5.97;3.10;;;;;;;;;;7327735;19;153976;-14
2022/02/22 17:45:45;;;;;;;6.38;3.13;;;;;;;;;;7328393;19;153482;-14
2022/02/22 17:48:17;;;;;;;5.95;3.33;;;;;;;;;;7327135;19;161780;-14
2022/02/22 17:50:48;;;;;;;3.83;2.80;;;;;;;;;;7327784;19;162746;-15
2022/02/22 17:53:22;;;;;;;5.28;2.67;;;;;;;;;;7333857;19;154000;-13
2022/02/22 17:55:55;;;;;;;6.00;2.67;;;;;;;;;;7335375;19;153885;-15
2022/02/22 17:58:41;;;;;;;4.75;2.80;;;;;;;;;;7334620;19;162011;-14
2022/02/22 18:01:19;;;;;;;7.63;3.28;;;;;;;;;;7334432;19;162500;-14
2022/02/22 18:03:56;;;;;;;6.15;2.63;;;;;;;;;;7334927;19;153934;-14
2022/02/22 18:06:28;;;;;;;7.35;3.00;;;;;;;;;;7334571;19;153465;-15
2022/02/22 18:09:02;;;;;;;3.95;2.38;;;;;;;;;;7332079;19;161863;-14
2022/02/22 18:11:36;;;;;;;4.95;2.80;;;;;;;;;;7334326;19;162366;-14
2022/02/22 18:14:07;;;;;;;8.20;3.17;;;;;;;;;;7334787;19;153958;-14
2022/02/22 18:16:40;;;;;;;9.10;3.30;;;;;;;;;;7332726;19;153595;-15
2022/02/22 18:19:12;;;;;;;5.68;2.65;;;;;;;;;;7334372;19;161820;-15
2022/02/22 18:21:44;;;;;;;4.97;2.88;;;;;;;;;;7334225;19;162638;-14
2022/02/22 18:24:18;;;;;;;8.55;3.00;;;;;;;;;;7334395;19;153972;-16
2022/02/22 18:26:49;;;;;;;6.50;2.60;;;;;;;;;;7334487;19;154077;-15
2022/02/22 18:29:21;;;;;;;5.07;2.85;;;;;;;;;;7332008;19;161860;-14
2022/02/22 18:31:52;;;;;;;7.03;3.50;;;;;;;;;;7333859;19;162399;-15
2022/02/22 18:34:23;;;;;;;7.35;3.33;;;;;;;;;;7334299;19;154249;-14
2022/02/22 18:36:55;;;;;;;4.43;2.60;;;;;;;;;;7332877;19;153578;-15
2022/02/22 18:39:29;;;;;;;7.50;3.03;;;;;;;;;;7333833;19;161815;-15
2022/02/22 18:42:00;;;;;;;7.13;3.28;;;;;;;;;;7333747;19;162395;-14
2022/02/22 18:44:32;;;;;;;5.68;2.85;;;;;;;;;;7334019;19;153987;-14
2022/02/22 18:47:03;;;;;;;6.03;2.92;;;;;;;;;;7333830;19;153589;-15
2022/02/22 18:49:35;;;;;;;5.05;2.60;;;;;;;;;;7331913;19;161928;-14
2022/02/22 18:52:07;;;;;;;7.38;2.80;;;;;;;;;;7333211;19;162444;-14
2022/02/22 18:54:41;;;;;;;6.28;2.83;;;;;;;;;;7333679;19;154208;-15
2022/02/22 18:57:13;;;;;;;5.70;3.00;;;;;;;;;;7333600;19;155077;-14
2022/02/22 18:59:45;;;;;;;6.40;2.97;;;;;;;;;;7331936;19;161832;-14
2022/02/22 19:02:17;;;;;;;5.60;3.07;;;;;;;;;;7332181;19;162559;-14
2022/02/22 19:04:48;;;;;;;6.95;3.20;;;;;;;;;;7333060;19;154040;-14
2022/02/22 19:07:19;;;;;;;5.85;3.22;;;;;;;;;;7333068;19;153514;-14
2022/02/22 19:09:54;;;;;;;4.97;2.78;;;;;;;;;;7331379;19;161743;-14
2022/02/22 19:12:25;;;;;;;5.13;2.50;;;;;;;;;;7332852;19;162560;-14
2022/02/22 19:14:57;;;;;;;4.88;2.45;;;;;;;;;;7333004;19;153995;-16
2022/02/22 19:17:28;;;;;;;6.57;2.95;;;;;;;;;;7330268;19;153666;-14
2022/02/22 19:20:00;;;;;;;6.43;2.70;;;;;;;;;;7330699;19;161984;-14
2022/02/22 19:22:31;;;;;;;6.03;2.80;;;;;;;;;;7332345;19;162415;-13
2022/02/22 19:25:06;;;;;;;5.70;3.15;;;;;;;;;;7333530;19;154234;-14
2022/02/22 19:27:37;;;;;;;4.07;2.53;;;;;;;;;;7332512;19;153937;-13
2022/02/22 19:30:11;;;;;;;6.13;2.92;;;;;;;;;;7330926;19;161879;-14
2022/02/22 19:32:43;;;;;;;6.68;3.22;;;;;;;;;;7332261;19;162353;-14
2022/02/22 19:35:14;;;;;;;6.00;2.63;;;;;;;;;;7332183;19;154222;-15
2022/02/22 19:37:46;;;;;;;5.53;2.88;;;;;;;;;;7332340;19;153577;-15
2022/02/22 19:40:20;;;;;;;5.57;2.90;;;;;;;;;;7331803;19;161795;-15
2022/02/22 19:42:51;;;;;;;5.00;3.25;;;;;;;;;;7331810;19;162357;-14
2022/02/22 19:45:23;;;;;;;5.13;3.20;;;;;;;;;;7331977;19;154108;-15
2022/02/22 19:47:54;;;;;;;6.00;2.88;;;;;;;;;;7332251;19;153665;-14
2022/02/22 19:50:27;;;;;;;5.05;2.60;;;;;;;;;;7330299;19;161875;-15
2022/02/22 19:53:06;;;;;;;6.43;3.28;;;;;;;;;;7331643;19;162427;-15
2022/02/22 19:55:40;;;;;;;4.30;2.60;;;;;;;;;;7330946;19;154090;-16
2022/02/22 19:58:11;;;;;;;5.60;2.90;;;;;;;;;;7330496;19;153559;-15
2022/02/22 20:00:43;;;;;;;4.85;2.85;;;;;;;;;;7331426;19;162004;-13
2022/02/22 20:03:14;;;;;;;3.45;2.75;;;;;;;;;;7331408;19;162376;-13
2022/02/22 20:05:48;;;;;;;5.22;3.13;;;;;;;;;;7334230;19;154149;-13
2022/02/22 20:08:20;;;;;;;7.40;3.00;;;;;;;;;;7334873;19;153752;-14
2022/02/22 20:10:54;;;;;;;4.75;2.85;;;;;;;;;;7332792;19;161862;-14
2022/02/22 20:13:26;;;;;;;4.68;2.67;;;;;;;;;;7335039;19;162183;-14
2022/02/22 20:15:57;;;;;;;6.80;3.28;;;;;;;;;;7328759;19;154221;-14
2022/02/22 20:18:30;;;;;;;4.57;2.80;;;;;;;;;;7331072;19;153700;-14
2022/02/22 20:21:01;;;;;;;5.35;3.20;;;;;;;;;;7331065;19;161807;-14
2022/02/22 20:23:32;;;;;;;6.40;3.28;;;;;;;;;;7330966;19;162369;-14
2022/02/22 20:26:07;;;;;;;3.65;2.47;;;;;;;;;;7332081;19;154075;-14
2022/02/22 20:28:40;;;;;;;3.80;2.97;;;;;;;;;;7333938;19;153650;-14
2022/02/22 20:31:12;;;;;;;5.00;2.95;;;;;;;;;;7332747;19;161838;-15
2022/02/22 20:33:46;;;;;;;4.22;2.90;;;;;;;;;;7329033;19;162659;-14
2022/02/22 20:36:18;;;;;;;4.65;3.10;;;;;;;;;;7330949;19;154111;-14
2022/02/22 20:38:49;;;;;;;4.07;2.67;;;;;;;;;;7330901;19;154313;-14
2022/02/22 20:41:23;;;;;;;4.43;2.60;;;;;;;;;;7330303;19;161820;-15
2022/02/22 20:43:54;;;;;;;4.63;3.10;;;;;;;;;;7330061;19;162511;-16
2022/02/22 20:46:28;;;;;;;5.25;3.13;;;;;;;;;;7330876;19;153965;-15
2022/02/22 20:48:59;;;;;;;6.13;3.03;;;;;;;;;;7329275;19;153609;-15
2022/02/22 20:51:32;;;;;;;5.10;3.28;;;;;;;;;;7330173;19;163817;-15
2022/02/22 20:54:04;;;;;;;5.00;3.45;;;;;;;;;;7331180;19;162534;-15
2022/02/22 20:56:38;;;;;;;5.32;3.30;;;;;;;;;;7333831;19;154019;-15
2022/02/22 20:59:10;;;;;;;5.80;3.28;;;;;;;;;;7332933;19;153763;-15
2022/02/22 21:01:42;;;;;;;4.10;3.00;;;;;;;;;;7332302;19;162006;-15
2022/02/22 21:04:13;;;;;;;4.60;3.17;;;;;;;;;;7332845;19;162668;-15
2022/02/22 21:06:45;;;;;;;5.53;3.55;;;;;;;;;;7332347;19;154019;-14
2022/02/22 21:09:16;;;;;;;9.50;5.05;;;;;;;;;;7330602;19;153859;-15
2022/02/22 21:11:51;;;;;;;7.13;3.97;;;;;;;;;;7328693;19;162240;-15
2022/02/22 21:14:23;;;;;;;6.55;4.18;;;;;;;;;;7330160;19;162462;-14
2022/02/22 21:16:54;;;;;;;5.97;4.05;;;;;;;;;;7327092;19;154043;-15
2022/02/22 21:19:25;;;;;;;7.38;4.30;;;;;;;;;;7331708;19;153869;-15
2022/02/22 21:22:00;;;;;;;5.75;3.92;;;;;;;;;;7329288;19;161813;-15
2022/02/22 21:24:35;;;;;;;7.57;3.80;;;;;;;;;;7329839;19;162438;-15
2022/02/22 21:27:10;;;;;;;7.03;3.72;;;;;;;;;;7335085;19;154336;-15
2022/02/22 21:29:42;;;;;;;35.67;21.05;;;;;;;;;;7335680;19;153890;-16
2022/02/22 21:32:13;;;;;;;35.25;22.67;;;;;;;;;;7333812;19;161843;-15
2022/02/22 21:34:44;;;;;;;42.80;30.83;;;;;;;;;;7335351;19;162355;-16
2022/02/22 21:37:16;;;;;;;22.95;16.38;;;;;;;;;;7335644;19;153990;-14
2022/02/22 21:39:47;;;;;;;25.35;13.82;;;;;;;;;;7338781;19;153814;-16
2022/02/22 21:42:21;;;;;;;15.98;10.45;;;;;;;;;;7335359;19;161991;-16
2022/02/22 21:44:52;;;;;;;17.98;11.52;;;;;;;;;;7335136;19;162517;-16
2022/02/22 21:47:24;;;;;;;18.23;11.93;;;;;;;;;;7335794;19;154057;-15
2022/02/22 21:49:56;;;;;;;17.33;11.90;;;;;;;;;;7335296;19;153584;-16
2022/02/22 21:52:27;;;;;;;16.23;11.40;;;;;;;;;;7333016;19;161713;-16
2022/02/22 21:54:58;;;;;;;21.92;11.63;;;;;;;;;;7334877;19;162527;-16
2022/02/22 21:57:32;;;;;;;22.85;14.93;;;;;;;;;;7336080;19;154016;-15
2022/02/22 22:00:04;;;;;;;17.00;12.00;;;;;;;;;;7337101;19;154119;-16
2022/02/22 22:02:42;;;;;;;18.65;11.80;;;;;;;;;;7337177;19;161814;-15
2022/02/22 22:05:14;;;;;;;18.50;11.88;;;;;;;;;;7338262;19;162389;-16
2022/02/22 22:07:45;;;;;;;15.05;11.05;;;;;;;;;;7338185;19;154124;-14
2022/02/22 22:10:19;;;;;;;16.58;11.52;;;;;;;;;;7338240;19;153507;-15
2022/02/22 22:12:53;;;;;;;21.05;11.95;;;;;;;;;;7335296;19;162051;-15
2022/02/22 22:15:24;;;;;;;20.67;11.32;;;;;;;;;;7336659;19;162518;-15
2022/02/22 22:17:56;;;;;;;17.25;11.00;;;;;;;;;;7338013;19;154077;-14
2022/02/22 22:20:27;;;;;;;17.40;11.38;;;;;;;;;;7337547;19;153539;-15
2022/02/22 22:22:59;;;;;;;16.90;11.18;;;;;;;;;;7336831;19;161874;-16
2022/02/22 22:25:30;;;;;;;19.05;10.98;;;;;;;;;;7336892;19;162429;-15
2022/02/22 22:28:05;;;;;;;13.25;9.52;;;;;;;;;;7335637;19;153989;-16
2022/02/22 22:30:37;;;;;;;15.95;10.73;;;;;;;;;;7337163;19;153718;-16
2022/02/22 22:33:09;;;;;;;16.02;10.98;;;;;;;;;;7334893;19;161888;-16
2022/02/22 22:35:40;;;;;;;15.40;10.75;;;;;;;;;;7336004;19;162486;-15
2022/02/22 22:38:24;;;;;;;16.00;10.50;;;;;;;;;;7335653;19;154120;-16
2022/02/22 22:40:55;;;;;;;14.55;10.02;;;;;;;;;;7335456;19;153662;-15
2022/02/22 22:43:29;;;;;;;16.63;10.43;;;;;;;;;;7336510;19;161884;-15
2022/02/22 22:46:00;;;;;;;14.90;10.65;;;;;;;;;;7336621;19;162124;-16
2022/02/22 22:48:32;;;;;;;16.70;10.77;;;;;;;;;;7335388;19;153996;-16
2022/02/22 22:51:03;;;;;;;11.95;9.25;;;;;;;;;;7336777;19;153558;-14
2022/02/22 22:53:34;;;;;;;12.32;8.88;;;;;;;;;;7332545;19;161879;-17
2022/02/22 22:56:06;;;;;;;13.25;9.48;;;;;;;;;;7336442;19;162421;-15
2022/02/22 22:58:40;;;;;;;13.55;10.27;;;;;;;;;;7334813;19;153979;-14
2022/02/22 23:01:16;;;;;;;13.75;9.32;;;;;;;;;;7336902;19;153564;-16
2022/02/22 23:03:49;;;;;;;13.75;9.70;;;;;;;;;;7335948;19;162210;-15
2022/02/22 23:14:36;;;;;;;13.30;8.70;;;;;;;;;;7336290;19;161955;-15
2022/02/22 23:17:08;;;;;;;12.88;9.43;;;;;;;;;;7333591;19;162342;-14
2022/02/22 23:19:40;;;;;;;11.77;9.15;;;;;;;;;;7335777;19;154467;-15
2022/02/22 23:22:11;;;;;;;11.38;8.48;;;;;;;;;;7336432;19;153495;-15
2022/02/22 23:24:43;;;;;;;11.38;8.43;;;;;;;;;;7335004;19;161854;-15
2022/02/22 23:27:14;;;;;;;15.38;9.40;;;;;;;;;;7334071;19;162478;-15
2022/02/22 23:29:50;;;;;;;14.15;9.10;;;;;;;;;;7331187;19;154115;-14
2022/02/22 23:32:22;;;;;;;10.73;8.50;;;;;;;;;;7331775;19;153489;-15
2022/02/22 23:34:54;;;;;;;;;;;;;;;;;;7331505;19;161789;-15
2022/02/22 23:37:25;;;;;;;11.77;8.20;;;;;;;;;;7331972;19;163259;-15
2022/02/22 23:39:56;;;;;;;12.38;8.20;;;;;;;;;;7330989;19;154110;-15
2022/02/22 23:42:28;;;;;;;11.80;8.32;;;;;;;;;;7332130;19;153918;-15
2022/02/22 23:45:02;;;;;;;8.48;7.38;;;;;;;;;;7331664;19;162556;-15
2022/02/22 23:47:33;;;;;;;11.75;7.82;;;;;;;;;;7331757;19;162505;-15
2022/02/22 23:50:05;;;;;;;10.65;7.72;;;;;;;;;;7329571;19;153755;-14
2022/02/22 23:52:38;;;;;;;13.68;8.00;;;;;;;;;;7330908;19;153685;-14
2022/02/22 23:55:11;;;;;;;12.02;8.13;;;;;;;;;;7331697;19;162184;-15
2022/02/22 23:57:42;;;;;;;11.30;7.90;;;;;;;;;;7331470;19;162536;-15
